KFVX

Farmville Regional Airport

Farmville, Virginia, USA
METAR KFVX 151835Z AUTO 22009KT 10SM SCT070 BKN085 16/03 A2974 RMK AO2 T01610029
Observed Flight Rules
Feb-15 @ 18:35 UTC (36 minutes ago) Visual Flight Rules
Wind Visibility Clouds
220° at 9 knots 10 miles
  • Scattered at 7,000' AGL
  • Broken at 8,500' AGL
Temperatures Readings
Current 16°C / 61°F
Dewpoint 3°C / 37°F
Humidity 42%
Altimeter 29.74" Hg
Pressure 1007.12 hPa
Elevation 125
METAR KFVX 151835Z AUTO 22009KT 10SM SCT070 BKN085 16/03 A2974 RMK AO2 T01610029
Observed Flight Rules
Feb-15 @ 18:35 UTC
(36 minutes ago)
VFR
Wind Visibility
220° at 9 knots 10 miles
Clouds
  • Scattered at 7,000' AGL
  • Broken at 8,500' AGL
Temperature Dewpoint
16°C / 61°F 3°C / 37°F
Humidity Altimeter Pressure
42% 29.74" Hg 1007.12 hPa